sensor_id;sensor_type;location;lat;lon;timestamp;P1;durP1;ratioP1;P2;durP2;ratioP2
11837;SDS011;5978;51.020;6.764;2022-10-31T00:01:23;19.00;;;9.87;;
11837;SDS011;5978;51.020;6.764;2022-10-31T00:03:50;13.93;;;7.43;;
11837;SDS011;5978;51.020;6.764;2022-10-31T00:06:16;9.47;;;8.57;;
11837;SDS011;5978;51.020;6.764;2022-10-31T00:08:45;11.83;;;7.67;;
11837;SDS011;5978;51.020;6.764;2022-10-31T00:11:21;16.63;;;8.03;;
11837;SDS011;5978;51.020;6.764;2022-10-31T00:13:47;13.27;;;7.40;;
11837;SDS011;5978;51.020;6.764;2022-10-31T00:16:16;14.30;;;8.23;;
11837;SDS011;5978;51.020;6.764;2022-10-31T00:18:50;18.93;;;8.20;;
11837;SDS011;5978;51.020;6.764;2022-10-31T00:21:17;9.13;;;7.33;;
11837;SDS011;5978;51.020;6.764;2022-10-31T00:23:42;14.70;;;7.73;;
11837;SDS011;5978;51.020;6.764;2022-10-31T00:26:08;21.70;;;9.00;;
11837;SDS011;5978;51.020;6.764;2022-10-31T00:28:34;15.53;;;8.80;;
11837;SDS011;5978;51.020;6.764;2022-10-31T00:31:00;10.00;;;6.60;;
11837;SDS011;5978;51.020;6.764;2022-10-31T00:33:32;12.73;;;7.93;;
11837;SDS011;5978;51.020;6.764;2022-10-31T00:35:58;15.73;;;9.43;;
11837;SDS011;5978;51.020;6.764;2022-10-31T00:38:24;12.70;;;8.37;;
11837;SDS011;5978;51.020;6.764;2022-10-31T00:40:50;15.07;;;8.70;;
11837;SDS011;5978;51.020;6.764;2022-10-31T00:43:16;12.77;;;9.80;;
11837;SDS011;5978;51.020;6.764;2022-10-31T00:45:41;11.77;;;8.63;;
11837;SDS011;5978;51.020;6.764;2022-10-31T00:48:08;15.90;;;8.73;;
11837;SDS011;5978;51.020;6.764;2022-10-31T00:50:34;10.40;;;7.70;;
11837;SDS011;5978;51.020;6.764;2022-10-31T00:52:59;13.57;;;8.57;;
11837;SDS011;5978;51.020;6.764;2022-10-31T00:55:25;13.87;;;8.53;;
11837;SDS011;5978;51.020;6.764;2022-10-31T00:57:51;16.10;;;9.00;;
11837;SDS011;5978;51.020;6.764;2022-10-31T01:00:16;15.00;;;9.93;;
11837;SDS011;5978;51.020;6.764;2022-10-31T01:02:42;16.93;;;9.60;;
11837;SDS011;5978;51.020;6.764;2022-10-31T01:05:07;19.10;;;10.53;;
11837;SDS011;5978;51.020;6.764;2022-10-31T01:07:36;20.00;;;10.10;;
11837;SDS011;5978;51.020;6.764;2022-10-31T01:10:03;14.93;;;9.13;;
11837;SDS011;5978;51.020;6.764;2022-10-31T01:12:35;18.13;;;9.53;;
11837;SDS011;5978;51.020;6.764;2022-10-31T01:15:11;16.13;;;10.37;;
11837;SDS011;5978;51.020;6.764;2022-10-31T01:17:39;12.10;;;8.90;;
11837;SDS011;5978;51.020;6.764;2022-10-31T01:20:05;14.30;;;9.07;;
11837;SDS011;5978;51.020;6.764;2022-10-31T01:22:32;18.07;;;10.17;;
11837;SDS011;5978;51.020;6.764;2022-10-31T01:24:58;14.37;;;10.03;;
11837;SDS011;5978;51.020;6.764;2022-10-31T01:27:24;15.13;;;9.67;;
11837;SDS011;5978;51.020;6.764;2022-10-31T01:29:49;11.97;;;9.33;;
11837;SDS011;5978;51.020;6.764;2022-10-31T01:32:15;16.80;;;11.90;;
11837;SDS011;5978;51.020;6.764;2022-10-31T01:34:40;13.20;;;9.60;;
11837;SDS011;5978;51.020;6.764;2022-10-31T01:37:06;15.43;;;10.10;;
11837;SDS011;5978;51.020;6.764;2022-10-31T01:39:31;14.17;;;9.97;;
11837;SDS011;5978;51.020;6.764;2022-10-31T01:41:57;14.47;;;9.00;;
11837;SDS011;5978;51.020;6.764;2022-10-31T01:46:56;16.43;;;8.50;;
11837;SDS011;5978;51.020;6.764;2022-10-31T01:52:11;15.23;;;8.47;;
11837;SDS011;5978;51.020;6.764;2022-10-31T01:54:45;18.73;;;10.00;;
11837;SDS011;5978;51.020;6.764;2022-10-31T01:57:15;12.90;;;8.97;;
11837;SDS011;5978;51.020;6.764;2022-10-31T01:59:44;18.70;;;9.20;;
11837;SDS011;5978;51.020;6.764;2022-10-31T02:02:14;17.90;;;9.40;;
11837;SDS011;5978;51.020;6.764;2022-10-31T02:04:41;13.37;;;8.87;;
11837;SDS011;5978;51.020;6.764;2022-10-31T02:07:15;15.17;;;9.37;;
11837;SDS011;5978;51.020;6.764;2022-10-31T02:09:46;10.40;;;8.20;;
11837;SDS011;5978;51.020;6.764;2022-10-31T02:12:14;15.90;;;9.20;;
11837;SDS011;5978;51.020;6.764;2022-10-31T02:14:41;14.07;;;8.53;;
11837;SDS011;5978;51.020;6.764;2022-10-31T02:17:06;18.13;;;9.77;;
11837;SDS011;5978;51.020;6.764;2022-10-31T02:19:48;15.00;;;8.90;;
11837;SDS011;5978;51.020;6.764;2022-10-31T02:28:34;20.07;;;9.67;;
11837;SDS011;5978;51.020;6.764;2022-10-31T02:34:22;17.47;;;8.90;;
11837;SDS011;5978;51.020;6.764;2022-10-31T02:37:13;19.57;;;9.43;;
11837;SDS011;5978;51.020;6.764;2022-10-31T02:39:49;18.43;;;9.10;;
11837;SDS011;5978;51.020;6.764;2022-10-31T02:42:42;15.37;;;8.90;;
11837;SDS011;5978;51.020;6.764;2022-10-31T02:48:03;13.90;;;9.57;;
11837;SDS011;5978;51.020;6.764;2022-10-31T02:50:37;16.23;;;9.80;;
11837;SDS011;5978;51.020;6.764;2022-10-31T02:53:06;20.60;;;11.60;;
11837;SDS011;5978;51.020;6.764;2022-10-31T02:58:13;13.33;;;9.23;;
11837;SDS011;5978;51.020;6.764;2022-10-31T03:08:55;13.13;;;9.20;;
11837;SDS011;5978;51.020;6.764;2022-10-31T03:11:31;17.30;;;11.47;;
11837;SDS011;5978;51.020;6.764;2022-10-31T03:14:06;20.03;;;10.03;;
11837;SDS011;5978;51.020;6.764;2022-10-31T03:16:39;20.33;;;10.77;;
11837;SDS011;5978;51.020;6.764;2022-10-31T03:19:17;15.77;;;10.07;;
11837;SDS011;5978;51.020;6.764;2022-10-31T03:21:54;17.70;;;10.50;;
11837;SDS011;5978;51.020;6.764;2022-10-31T03:24:24;13.83;;;9.17;;
11837;SDS011;5978;51.020;6.764;2022-10-31T03:26:54;18.90;;;9.60;;
11837;SDS011;5978;51.020;6.764;2022-10-31T03:29:24;14.53;;;9.70;;
11837;SDS011;5978;51.020;6.764;2022-10-31T03:32:00;18.20;;;10.83;;
11837;SDS011;5978;51.020;6.764;2022-10-31T03:34:31;12.90;;;9.03;;
11837;SDS011;5978;51.020;6.764;2022-10-31T03:37:00;28.53;;;10.77;;
11837;SDS011;5978;51.020;6.764;2022-10-31T03:39:28;13.63;;;9.77;;
11837;SDS011;5978;51.020;6.764;2022-10-31T03:42:41;12.93;;;8.63;;
11837;SDS011;5978;51.020;6.764;2022-10-31T03:44:50;13.57;;;9.33;;
11837;SDS011;5978;51.020;6.764;2022-10-31T03:47:22;19.47;;;10.30;;
11837;SDS011;5978;51.020;6.764;2022-10-31T03:49:48;10.70;;;8.83;;
11837;SDS011;5978;51.020;6.764;2022-10-31T03:52:24;18.63;;;9.87;;
11837;SDS011;5978;51.020;6.764;2022-10-31T03:54:53;18.43;;;9.63;;
11837;SDS011;5978;51.020;6.764;2022-10-31T04:00:10;14.33;;;10.10;;
11837;SDS011;5978;51.020;6.764;2022-10-31T04:02:38;20.00;;;9.87;;
11837;SDS011;5978;51.020;6.764;2022-10-31T04:05:07;10.93;;;8.57;;
11837;SDS011;5978;51.020;6.764;2022-10-31T04:07:36;17.17;;;10.43;;
11837;SDS011;5978;51.020;6.764;2022-10-31T04:10:06;15.60;;;9.60;;
11837;SDS011;5978;51.020;6.764;2022-10-31T04:12:34;16.17;;;9.20;;
11837;SDS011;5978;51.020;6.764;2022-10-31T04:15:03;16.00;;;10.10;;
11837;SDS011;5978;51.020;6.764;2022-10-31T04:17:31;16.13;;;10.20;;
11837;SDS011;5978;51.020;6.764;2022-10-31T04:20:01;15.37;;;10.97;;
11837;SDS011;5978;51.020;6.764;2022-10-31T04:22:27;14.47;;;10.00;;
11837;SDS011;5978;51.020;6.764;2022-10-31T04:24:53;17.13;;;10.33;;
11837;SDS011;5978;51.020;6.764;2022-10-31T04:27:18;14.37;;;10.00;;
11837;SDS011;5978;51.020;6.764;2022-10-31T04:29:44;14.07;;;9.80;;
11837;SDS011;5978;51.020;6.764;2022-10-31T04:32:09;16.47;;;10.10;;
11837;SDS011;5978;51.020;6.764;2022-10-31T04:34:35;11.57;;;9.60;;
11837;SDS011;5978;51.020;6.764;2022-10-31T04:37:00;16.50;;;9.97;;
11837;SDS011;5978;51.020;6.764;2022-10-31T04:39:26;17.40;;;11.10;;
11837;SDS011;5978;51.020;6.764;2022-10-31T04:41:51;13.47;;;9.93;;
11837;SDS011;5978;51.020;6.764;2022-10-31T04:44:17;15.03;;;11.23;;
11837;SDS011;5978;51.020;6.764;2022-10-31T04:46:43;13.60;;;10.57;;
11837;SDS011;5978;51.020;6.764;2022-10-31T04:49:08;18.50;;;11.00;;
11837;SDS011;5978;51.020;6.764;2022-10-31T04:51:34;13.73;;;9.63;;
11837;SDS011;5978;51.020;6.764;2022-10-31T04:54:00;17.57;;;10.57;;
11837;SDS011;5978;51.020;6.764;2022-10-31T04:56:25;19.13;;;11.63;;
11837;SDS011;5978;51.020;6.764;2022-10-31T04:58:51;14.70;;;8.60;;
11837;SDS011;5978;51.020;6.764;2022-10-31T05:01:16;14.10;;;9.07;;
11837;SDS011;5978;51.020;6.764;2022-10-31T05:03:42;15.10;;;9.67;;
11837;SDS011;5978;51.020;6.764;2022-10-31T05:06:07;15.23;;;9.23;;
11837;SDS011;5978;51.020;6.764;2022-10-31T05:08:33;14.97;;;8.67;;
11837;SDS011;5978;51.020;6.764;2022-10-31T05:10:59;11.97;;;9.47;;
11837;SDS011;5978;51.020;6.764;2022-10-31T05:13:26;14.10;;;9.37;;
11837;SDS011;5978;51.020;6.764;2022-10-31T05:15:52;17.93;;;8.63;;
11837;SDS011;5978;51.020;6.764;2022-10-31T05:18:18;15.37;;;9.27;;
11837;SDS011;5978;51.020;6.764;2022-10-31T05:20:43;12.70;;;9.60;;
11837;SDS011;5978;51.020;6.764;2022-10-31T05:23:09;15.60;;;8.93;;
11837;SDS011;5978;51.020;6.764;2022-10-31T05:25:34;16.47;;;9.60;;
11837;SDS011;5978;51.020;6.764;2022-10-31T05:28:00;20.70;;;9.60;;
11837;SDS011;5978;51.020;6.764;2022-10-31T05:30:26;15.67;;;9.47;;
11837;SDS011;5978;51.020;6.764;2022-10-31T05:32:53;15.30;;;9.37;;
11837;SDS011;5978;51.020;6.764;2022-10-31T05:35:21;14.70;;;8.70;;
11837;SDS011;5978;51.020;6.764;2022-10-31T05:37:48;15.27;;;9.50;;
11837;SDS011;5978;51.020;6.764;2022-10-31T05:40:15;16.80;;;9.37;;
11837;SDS011;5978;51.020;6.764;2022-10-31T05:42:41;15.30;;;10.00;;
11837;SDS011;5978;51.020;6.764;2022-10-31T05:45:11;13.27;;;8.27;;
11837;SDS011;5978;51.020;6.764;2022-10-31T05:47:38;12.90;;;9.03;;
11837;SDS011;5978;51.020;6.764;2022-10-31T05:50:04;11.50;;;9.23;;
11837;SDS011;5978;51.020;6.764;2022-10-31T05:52:31;11.80;;;9.47;;
11837;SDS011;5978;51.020;6.764;2022-10-31T05:54:57;11.77;;;8.27;;
11837;SDS011;5978;51.020;6.764;2022-10-31T05:57:22;14.43;;;10.00;;
11837;SDS011;5978;51.020;6.764;2022-10-31T05:59:48;13.73;;;8.67;;
11837;SDS011;5978;51.020;6.764;2022-10-31T06:02:16;14.97;;;9.90;;
11837;SDS011;5978;51.020;6.764;2022-10-31T06:04:41;11.27;;;8.70;;
11837;SDS011;5978;51.020;6.764;2022-10-31T06:07:07;15.37;;;9.03;;
11837;SDS011;5978;51.020;6.764;2022-10-31T06:09:32;15.83;;;8.53;;
11837;SDS011;5978;51.020;6.764;2022-10-31T06:11:58;13.13;;;8.70;;
11837;SDS011;5978;51.020;6.764;2022-10-31T06:14:23;14.00;;;9.40;;
11837;SDS011;5978;51.020;6.764;2022-10-31T06:16:49;19.97;;;10.93;;
11837;SDS011;5978;51.020;6.764;2022-10-31T06:19:15;17.20;;;9.63;;
11837;SDS011;5978;51.020;6.764;2022-10-31T06:21:40;13.90;;;9.73;;
11837;SDS011;5978;51.020;6.764;2022-10-31T06:24:06;16.63;;;9.23;;
11837;SDS011;5978;51.020;6.764;2022-10-31T06:26:31;14.43;;;9.50;;
11837;SDS011;5978;51.020;6.764;2022-10-31T06:28:57;16.87;;;10.50;;
11837;SDS011;5978;51.020;6.764;2022-10-31T06:31:22;14.20;;;9.37;;
11837;SDS011;5978;51.020;6.764;2022-10-31T06:33:48;17.27;;;10.13;;
11837;SDS011;5978;51.020;6.764;2022-10-31T06:36:13;20.00;;;11.67;;
11837;SDS011;5978;51.020;6.764;2022-10-31T06:38:39;13.33;;;9.87;;
11837;SDS011;5978;51.020;6.764;2022-10-31T06:41:05;15.10;;;8.93;;
11837;SDS011;5978;51.020;6.764;2022-10-31T06:43:31;13.17;;;9.83;;
11837;SDS011;5978;51.020;6.764;2022-10-31T06:45:57;17.10;;;10.93;;
11837;SDS011;5978;51.020;6.764;2022-10-31T06:48:26;16.47;;;9.43;;
11837;SDS011;5978;51.020;6.764;2022-10-31T06:50:51;17.40;;;9.27;;
11837;SDS011;5978;51.020;6.764;2022-10-31T06:53:17;16.67;;;9.30;;
11837;SDS011;5978;51.020;6.764;2022-10-31T06:55:42;17.63;;;9.50;;
11837;SDS011;5978;51.020;6.764;2022-10-31T06:58:08;15.37;;;9.57;;
11837;SDS011;5978;51.020;6.764;2022-10-31T07:00:35;19.40;;;9.73;;
11837;SDS011;5978;51.020;6.764;2022-10-31T07:03:05;15.90;;;9.30;;
11837;SDS011;5978;51.020;6.764;2022-10-31T07:05:34;14.23;;;10.07;;
11837;SDS011;5978;51.020;6.764;2022-10-31T07:08:00;19.33;;;9.50;;
11837;SDS011;5978;51.020;6.764;2022-10-31T07:10:29;14.63;;;9.10;;
11837;SDS011;5978;51.020;6.764;2022-10-31T07:12:59;18.30;;;8.97;;
11837;SDS011;5978;51.020;6.764;2022-10-31T07:15:28;14.83;;;8.97;;
11837;SDS011;5978;51.020;6.764;2022-10-31T07:18:04;16.70;;;9.47;;
11837;SDS011;5978;51.020;6.764;2022-10-31T07:20:32;13.50;;;9.53;;
11837;SDS011;5978;51.020;6.764;2022-10-31T07:22:57;13.10;;;9.83;;
11837;SDS011;5978;51.020;6.764;2022-10-31T07:25:23;21.70;;;11.30;;
11837;SDS011;5978;51.020;6.764;2022-10-31T07:27:49;12.50;;;9.90;;
11837;SDS011;5978;51.020;6.764;2022-10-31T07:30:15;13.23;;;9.10;;
11837;SDS011;5978;51.020;6.764;2022-10-31T07:32:45;13.87;;;9.47;;
11837;SDS011;5978;51.020;6.764;2022-10-31T07:35:13;17.37;;;10.20;;
11837;SDS011;5978;51.020;6.764;2022-10-31T07:37:40;19.37;;;10.87;;
11837;SDS011;5978;51.020;6.764;2022-10-31T07:40:06;17.80;;;10.10;;
11837;SDS011;5978;51.020;6.764;2022-10-31T07:42:40;14.33;;;10.13;;
11837;SDS011;5978;51.020;6.764;2022-10-31T07:45:07;13.97;;;9.10;;
11837;SDS011;5978;51.020;6.764;2022-10-31T07:47:38;18.13;;;9.40;;
11837;SDS011;5978;51.020;6.764;2022-10-31T07:50:08;16.60;;;10.57;;
11837;SDS011;5978;51.020;6.764;2022-10-31T07:52:35;14.20;;;9.10;;
11837;SDS011;5978;51.020;6.764;2022-10-31T07:55:01;14.63;;;9.87;;
11837;SDS011;5978;51.020;6.764;2022-10-31T07:57:28;13.40;;;9.33;;
11837;SDS011;5978;51.020;6.764;2022-10-31T07:59:54;12.00;;;8.43;;
11837;SDS011;5978;51.020;6.764;2022-10-31T08:02:19;21.27;;;10.10;;
11837;SDS011;5978;51.020;6.764;2022-10-31T08:04:45;18.00;;;9.53;;
11837;SDS011;5978;51.020;6.764;2022-10-31T08:07:10;19.73;;;8.90;;
11837;SDS011;5978;51.020;6.764;2022-10-31T08:09:36;15.77;;;9.00;;
11837;SDS011;5978;51.020;6.764;2022-10-31T08:12:02;16.43;;;11.13;;
11837;SDS011;5978;51.020;6.764;2022-10-31T08:14:28;18.80;;;10.03;;
11837;SDS011;5978;51.020;6.764;2022-10-31T08:16:53;23.70;;;9.90;;
11837;SDS011;5978;51.020;6.764;2022-10-31T08:19:19;15.60;;;10.27;;
11837;SDS011;5978;51.020;6.764;2022-10-31T08:21:44;20.33;;;10.53;;
11837;SDS011;5978;51.020;6.764;2022-10-31T08:24:10;18.80;;;10.40;;
11837;SDS011;5978;51.020;6.764;2022-10-31T08:26:36;15.17;;;9.60;;
11837;SDS011;5978;51.020;6.764;2022-10-31T08:29:02;11.63;;;9.50;;
11837;SDS011;5978;51.020;6.764;2022-10-31T08:31:28;18.47;;;10.97;;
11837;SDS011;5978;51.020;6.764;2022-10-31T08:33:53;14.53;;;9.63;;
11837;SDS011;5978;51.020;6.764;2022-10-31T08:36:21;16.13;;;10.13;;
11837;SDS011;5978;51.020;6.764;2022-10-31T08:38:47;16.90;;;10.17;;
11837;SDS011;5978;51.020;6.764;2022-10-31T08:41:13;20.27;;;10.13;;
11837;SDS011;5978;51.020;6.764;2022-10-31T08:43:39;15.97;;;11.00;;
11837;SDS011;5978;51.020;6.764;2022-10-31T08:46:04;17.40;;;10.27;;
11837;SDS011;5978;51.020;6.764;2022-10-31T08:48:30;14.83;;;9.37;;
11837;SDS011;5978;51.020;6.764;2022-10-31T08:50:57;16.30;;;10.10;;
11837;SDS011;5978;51.020;6.764;2022-10-31T08:53:24;14.93;;;9.70;;
11837;SDS011;5978;51.020;6.764;2022-10-31T08:55:50;18.30;;;11.17;;
11837;SDS011;5978;51.020;6.764;2022-10-31T08:58:19;20.47;;;10.80;;
11837;SDS011;5978;51.020;6.764;2022-10-31T09:00:45;13.53;;;8.93;;
11837;SDS011;5978;51.020;6.764;2022-10-31T09:03:13;17.67;;;10.07;;
11837;SDS011;5978;51.020;6.764;2022-10-31T09:05:41;15.77;;;11.23;;
11837;SDS011;5978;51.020;6.764;2022-10-31T09:08:07;16.83;;;11.90;;
11837;SDS011;5978;51.020;6.764;2022-10-31T09:10:33;21.43;;;10.43;;
11837;SDS011;5978;51.020;6.764;2022-10-31T09:13:02;11.63;;;9.20;;
11837;SDS011;5978;51.020;6.764;2022-10-31T09:15:31;17.13;;;10.90;;
11837;SDS011;5978;51.020;6.764;2022-10-31T09:17:58;13.63;;;9.83;;
11837;SDS011;5978;51.020;6.764;2022-10-31T09:20:24;14.60;;;9.50;;
11837;SDS011;5978;51.020;6.764;2022-10-31T09:22:56;20.07;;;10.50;;
11837;SDS011;5978;51.020;6.764;2022-10-31T09:25:23;14.30;;;9.97;;
11837;SDS011;5978;51.020;6.764;2022-10-31T09:27:49;14.83;;;10.77;;
11837;SDS011;5978;51.020;6.764;2022-10-31T09:30:15;15.67;;;11.33;;
11837;SDS011;5978;51.020;6.764;2022-10-31T09:32:40;18.77;;;11.50;;
11837;SDS011;5978;51.020;6.764;2022-10-31T09:35:06;21.00;;;10.80;;
11837;SDS011;5978;51.020;6.764;2022-10-31T09:37:32;18.20;;;9.83;;
11837;SDS011;5978;51.020;6.764;2022-10-31T09:39:58;21.40;;;10.80;;
11837;SDS011;5978;51.020;6.764;2022-10-31T09:48:27;19.60;;;10.40;;
11837;SDS011;5978;51.020;6.764;2022-10-31T09:53:39;13.70;;;10.17;;
11837;SDS011;5978;51.020;6.764;2022-10-31T09:56:13;13.60;;;8.97;;
11837;SDS011;5978;51.020;6.764;2022-10-31T09:58:46;16.33;;;9.27;;
11837;SDS011;5978;51.020;6.764;2022-10-31T10:01:22;19.90;;;9.00;;
11837;SDS011;5978;51.020;6.764;2022-10-31T10:03:57;11.77;;;9.03;;
11837;SDS011;5978;51.020;6.764;2022-10-31T10:06:28;14.63;;;8.47;;
11837;SDS011;5978;51.020;6.764;2022-10-31T10:08:57;15.33;;;9.50;;
11837;SDS011;5978;51.020;6.764;2022-10-31T10:11:27;15.73;;;10.13;;
11837;SDS011;5978;51.020;6.764;2022-10-31T10:14:21;14.67;;;9.53;;
11837;SDS011;5978;51.020;6.764;2022-10-31T10:17:08;13.37;;;10.33;;
11837;SDS011;5978;51.020;6.764;2022-10-31T10:22:50;24.97;;;9.80;;
11837;SDS011;5978;51.020;6.764;2022-10-31T10:25:25;15.97;;;10.17;;
11837;SDS011;5978;51.020;6.764;2022-10-31T10:30:38;16.47;;;9.70;;
11837;SDS011;5978;51.020;6.764;2022-10-31T10:33:30;15.33;;;9.73;;
11837;SDS011;5978;51.020;6.764;2022-10-31T10:36:05;16.33;;;10.80;;
11837;SDS011;5978;51.020;6.764;2022-10-31T10:38:46;19.37;;;9.73;;
11837;SDS011;5978;51.020;6.764;2022-10-31T10:41:19;28.00;;;11.20;;
11837;SDS011;5978;51.020;6.764;2022-10-31T10:43:48;15.40;;;10.70;;
11837;SDS011;5978;51.020;6.764;2022-10-31T10:49:14;15.20;;;9.30;;
11837;SDS011;5978;51.020;6.764;2022-10-31T10:51:45;18.80;;;10.13;;
11837;SDS011;5978;51.020;6.764;2022-10-31T10:59:49;14.70;;;8.40;;
11837;SDS011;5978;51.020;6.764;2022-10-31T11:02:17;16.47;;;10.00;;
11837;SDS011;5978;51.020;6.764;2022-10-31T11:04:51;18.70;;;9.30;;
11837;SDS011;5978;51.020;6.764;2022-10-31T11:07:19;12.47;;;9.50;;
11837;SDS011;5978;51.020;6.764;2022-10-31T11:09:45;12.60;;;7.90;;
11837;SDS011;5978;51.020;6.764;2022-10-31T11:12:17;12.20;;;8.33;;
11837;SDS011;5978;51.020;6.764;2022-10-31T11:17:22;13.13;;;8.03;;
11837;SDS011;5978;51.020;6.764;2022-10-31T11:20:00;21.33;;;8.50;;
11837;SDS011;5978;51.020;6.764;2022-10-31T11:22:38;19.73;;;8.07;;
11837;SDS011;5978;51.020;6.764;2022-10-31T11:28:05;14.07;;;7.20;;
11837;SDS011;5978;51.020;6.764;2022-10-31T11:30:47;14.60;;;8.60;;
11837;SDS011;5978;51.020;6.764;2022-10-31T11:33:19;9.57;;;7.63;;
11837;SDS011;5978;51.020;6.764;2022-10-31T11:35:51;12.43;;;6.23;;
11837;SDS011;5978;51.020;6.764;2022-10-31T11:38:19;9.33;;;6.73;;
11837;SDS011;5978;51.020;6.764;2022-10-31T11:40:57;11.13;;;6.50;;
11837;SDS011;5978;51.020;6.764;2022-10-31T11:43:25;15.10;;;7.37;;
11837;SDS011;5978;51.020;6.764;2022-10-31T11:45:52;10.13;;;7.03;;
11837;SDS011;5978;51.020;6.764;2022-10-31T11:48:19;14.30;;;6.37;;
11837;SDS011;5978;51.020;6.764;2022-10-31T11:50:48;7.60;;;5.90;;
11837;SDS011;5978;51.020;6.764;2022-10-31T11:53:26;10.93;;;6.50;;
11837;SDS011;5978;51.020;6.764;2022-10-31T11:56:05;18.77;;;6.77;;
11837;SDS011;5978;51.020;6.764;2022-10-31T11:58:37;10.03;;;5.90;;
11837;SDS011;5978;51.020;6.764;2022-10-31T12:01:02;7.53;;;6.23;;
11837;SDS011;5978;51.020;6.764;2022-10-31T12:03:41;11.63;;;6.10;;
11837;SDS011;5978;51.020;6.764;2022-10-31T12:06:30;14.47;;;7.50;;
11837;SDS011;5978;51.020;6.764;2022-10-31T12:08:59;11.13;;;6.10;;
11837;SDS011;5978;51.020;6.764;2022-10-31T12:14:17;13.30;;;6.57;;
11837;SDS011;5978;51.020;6.764;2022-10-31T12:25:34;10.70;;;5.63;;
11837;SDS011;5978;51.020;6.764;2022-10-31T12:42:36;11.50;;;6.07;;
11837;SDS011;5978;51.020;6.764;2022-10-31T12:48:33;12.73;;;6.30;;
11837;SDS011;5978;51.020;6.764;2022-10-31T12:53:56;13.93;;;6.33;;
11837;SDS011;5978;51.020;6.764;2022-10-31T12:59:30;9.47;;;6.73;;
11837;SDS011;5978;51.020;6.764;2022-10-31T13:02:27;17.17;;;5.77;;
11837;SDS011;5978;51.020;6.764;2022-10-31T13:05:10;11.00;;;5.23;;
11837;SDS011;5978;51.020;6.764;2022-10-31T13:10:15;9.20;;;5.77;;
11837;SDS011;5978;51.020;6.764;2022-10-31T13:12:44;9.70;;;5.73;;
11837;SDS011;5978;51.020;6.764;2022-10-31T13:17:40;7.77;;;5.50;;
11837;SDS011;5978;51.020;6.764;2022-10-31T13:20:24;7.93;;;5.57;;
11837;SDS011;5978;51.020;6.764;2022-10-31T13:23:03;17.47;;;5.70;;
11837;SDS011;5978;51.020;6.764;2022-10-31T13:25:46;10.57;;;6.20;;
11837;SDS011;5978;51.020;6.764;2022-10-31T13:28:25;14.30;;;6.23;;
11837;SDS011;5978;51.020;6.764;2022-10-31T13:31:23;13.80;;;5.30;;
11837;SDS011;5978;51.020;6.764;2022-10-31T13:33:59;9.50;;;5.30;;
11837;SDS011;5978;51.020;6.764;2022-10-31T13:41:57;6.77;;;4.67;;
11837;SDS011;5978;51.020;6.764;2022-10-31T13:44:29;9.67;;;5.43;;
11837;SDS011;5978;51.020;6.764;2022-10-31T13:46:57;15.70;;;5.83;;
11837;SDS011;5978;51.020;6.764;2022-10-31T13:51:48;8.90;;;4.63;;
11837;SDS011;5978;51.020;6.764;2022-10-31T13:54:21;9.20;;;5.83;;
11837;SDS011;5978;51.020;6.764;2022-10-31T13:56:50;7.97;;;4.80;;
11837;SDS011;5978;51.020;6.764;2022-10-31T13:59:23;8.70;;;5.67;;
11837;SDS011;5978;51.020;6.764;2022-10-31T14:01:55;6.67;;;4.83;;
11837;SDS011;5978;51.020;6.764;2022-10-31T14:04:37;8.70;;;5.43;;
11837;SDS011;5978;51.020;6.764;2022-10-31T14:07:10;9.40;;;5.70;;
11837;SDS011;5978;51.020;6.764;2022-10-31T14:12:21;13.43;;;5.77;;
11837;SDS011;5978;51.020;6.764;2022-10-31T14:14:51;10.30;;;5.53;;
11837;SDS011;5978;51.020;6.764;2022-10-31T14:17:26;13.37;;;6.10;;
11837;SDS011;5978;51.020;6.764;2022-10-31T14:22:36;14.47;;;5.33;;
11837;SDS011;5978;51.020;6.764;2022-10-31T14:27:51;10.30;;;4.90;;
11837;SDS011;5978;51.020;6.764;2022-10-31T14:30:21;9.13;;;5.33;;
11837;SDS011;5978;51.020;6.764;2022-10-31T14:32:54;19.63;;;6.20;;
11837;SDS011;5978;51.020;6.764;2022-10-31T14:35:24;12.10;;;5.37;;
11837;SDS011;5978;51.020;6.764;2022-10-31T14:38:08;15.10;;;5.57;;
11837;SDS011;5978;51.020;6.764;2022-10-31T14:53:09;10.20;;;5.53;;
11837;SDS011;5978;51.020;6.764;2022-10-31T14:55:46;11.57;;;5.20;;
11837;SDS011;5978;51.020;6.764;2022-10-31T14:58:16;10.47;;;5.30;;
11837;SDS011;5978;51.020;6.764;2022-10-31T15:00:46;16.03;;;6.53;;
11837;SDS011;5978;51.020;6.764;2022-10-31T15:03:14;9.80;;;5.37;;
11837;SDS011;5978;51.020;6.764;2022-10-31T15:06:01;11.50;;;5.83;;
11837;SDS011;5978;51.020;6.764;2022-10-31T15:11:02;13.70;;;5.90;;
11837;SDS011;5978;51.020;6.764;2022-10-31T15:13:28;8.30;;;5.47;;
11837;SDS011;5978;51.020;6.764;2022-10-31T15:15:54;11.93;;;5.60;;
11837;SDS011;5978;51.020;6.764;2022-10-31T15:18:22;21.00;;;5.60;;
11837;SDS011;5978;51.020;6.764;2022-10-31T15:20:49;9.37;;;6.50;;
11837;SDS011;5978;51.020;6.764;2022-10-31T15:23:28;12.70;;;4.90;;
11837;SDS011;5978;51.020;6.764;2022-10-31T15:26:00;8.00;;;4.80;;
11837;SDS011;5978;51.020;6.764;2022-10-31T15:28:28;15.83;;;6.27;;
11837;SDS011;5978;51.020;6.764;2022-10-31T15:30:57;8.93;;;5.30;;
11837;SDS011;5978;51.020;6.764;2022-10-31T15:33:25;15.93;;;4.93;;
11837;SDS011;5978;51.020;6.764;2022-10-31T15:35:58;9.00;;;5.73;;
11837;SDS011;5978;51.020;6.764;2022-10-31T15:38:24;14.20;;;6.93;;
11837;SDS011;5978;51.020;6.764;2022-10-31T15:40:52;9.17;;;5.40;;
11837;SDS011;5978;51.020;6.764;2022-10-31T15:43:38;15.47;;;4.70;;
11837;SDS011;5978;51.020;6.764;2022-10-31T15:46:06;7.33;;;5.10;;
11837;SDS011;5978;51.020;6.764;2022-10-31T15:48:33;9.17;;;5.00;;
11837;SDS011;5978;51.020;6.764;2022-10-31T15:51:00;9.37;;;6.43;;
11837;SDS011;5978;51.020;6.764;2022-10-31T15:53:35;12.37;;;5.27;;
11837;SDS011;5978;51.020;6.764;2022-10-31T15:56:07;11.83;;;5.70;;
11837;SDS011;5978;51.020;6.764;2022-10-31T15:58:44;9.30;;;4.90;;
11837;SDS011;5978;51.020;6.764;2022-10-31T16:01:20;7.60;;;4.63;;
11837;SDS011;5978;51.020;6.764;2022-10-31T16:06:24;12.93;;;5.87;;
11837;SDS011;5978;51.020;6.764;2022-10-31T16:08:50;8.57;;;4.63;;
11837;SDS011;5978;51.020;6.764;2022-10-31T16:11:38;6.93;;;4.47;;
11837;SDS011;5978;51.020;6.764;2022-10-31T16:16:46;8.33;;;5.00;;
11837;SDS011;5978;51.020;6.764;2022-10-31T16:19:21;7.43;;;5.87;;
11837;SDS011;5978;51.020;6.764;2022-10-31T16:22:06;6.80;;;4.47;;
11837;SDS011;5978;51.020;6.764;2022-10-31T16:25:24;11.17;;;6.40;;
11837;SDS011;5978;51.020;6.764;2022-10-31T16:27:32;7.97;;;5.60;;
11837;SDS011;5978;51.020;6.764;2022-10-31T16:30:00;5.53;;;4.70;;
11837;SDS011;5978;51.020;6.764;2022-10-31T16:35:31;9.63;;;5.60;;
11837;SDS011;5978;51.020;6.764;2022-10-31T16:37:56;13.70;;;5.37;;
11837;SDS011;5978;51.020;6.764;2022-10-31T16:40:22;8.93;;;4.80;;
11837;SDS011;5978;51.020;6.764;2022-10-31T16:42:48;11.27;;;6.07;;
11837;SDS011;5978;51.020;6.764;2022-10-31T16:45:15;12.20;;;5.30;;
11837;SDS011;5978;51.020;6.764;2022-10-31T16:47:43;11.90;;;5.43;;
11837;SDS011;5978;51.020;6.764;2022-10-31T16:50:17;12.70;;;6.27;;
11837;SDS011;5978;51.020;6.764;2022-10-31T16:52:48;11.87;;;6.10;;
11837;SDS011;5978;51.020;6.764;2022-10-31T16:55:14;10.33;;;5.10;;
11837;SDS011;5978;51.020;6.764;2022-10-31T16:57:42;7.47;;;5.10;;
11837;SDS011;5978;51.020;6.764;2022-10-31T17:00:13;12.50;;;5.70;;
11837;SDS011;5978;51.020;6.764;2022-10-31T17:02:40;6.93;;;5.27;;
11837;SDS011;5978;51.020;6.764;2022-10-31T17:05:08;10.33;;;5.87;;
11837;SDS011;5978;51.020;6.764;2022-10-31T17:07:36;12.93;;;5.80;;
11837;SDS011;5978;51.020;6.764;2022-10-31T17:10:01;12.60;;;6.13;;
11837;SDS011;5978;51.020;6.764;2022-10-31T17:12:27;11.30;;;5.27;;
11837;SDS011;5978;51.020;6.764;2022-10-31T17:14:53;11.03;;;5.00;;
11837;SDS011;5978;51.020;6.764;2022-10-31T17:17:18;13.50;;;5.93;;
11837;SDS011;5978;51.020;6.764;2022-10-31T17:19:44;13.87;;;5.37;;